Meteorología – Condiciones actuales

Viento: 2kts / 269° Pista Recomendada: 24
Componente de viento cruzado: 0.8kts
Temperatura: 18°C / Punto de Rocío: 11°C
QNH LELC: 1007 / Presión atmosf. LELG: 1007.79mbar
Condición CTR LELC: VFR
Altitud de Densidad: 382'AMSL / Isocero: 8710'AMSL
Orto: 08:00LT / Ocaso: 19:47LT
METAR LELC: LELC 290530Z 25003KT 210V280 CAVOK 16/13 Q1007 NOSIG
Fuente: NOAA
Datos completos de la estación meteorológica en Weather Underground
UTC time: